sensor_id;sensor_type;location;lat;lon;timestamp;temperature;humidity
84265;DHT22;74412;45.626;5.108;2024-02-14T00:00:03;8.47;72.80
84265;DHT22;74412;45.626;5.108;2024-02-14T00:02:30;8.43;72.74
84265;DHT22;74412;45.626;5.108;2024-02-14T00:04:56;8.47;72.77
84265;DHT22;74412;45.626;5.108;2024-02-14T00:07:24;8.44;72.73
84265;DHT22;74412;45.626;5.108;2024-02-14T00:09:52;8.43;72.65
84265;DHT22;74412;45.626;5.108;2024-02-14T00:12:19;8.43;72.57
84265;DHT22;74412;45.626;5.108;2024-02-14T00:14:45;8.42;72.63
84265;DHT22;74412;45.626;5.108;2024-02-14T00:17:12;8.39;72.82
84265;DHT22;74412;45.626;5.108;2024-02-14T00:19:39;8.39;72.83
84265;DHT22;74412;45.626;5.108;2024-02-14T00:22:06;8.36;72.84
84265;DHT22;74412;45.626;5.108;2024-02-14T00:24:34;8.36;73.03
84265;DHT22;74412;45.626;5.108;2024-02-14T00:27:01;8.34;73.00
84265;DHT22;74412;45.626;5.108;2024-02-14T00:29:28;8.34;72.95
84265;DHT22;74412;45.626;5.108;2024-02-14T00:31:55;8.32;73.16
84265;DHT22;74412;45.626;5.108;2024-02-14T00:34:22;8.32;73.25
84265;DHT22;74412;45.626;5.108;2024-02-14T00:36:49;8.30;73.44
84265;DHT22;74412;45.626;5.108;2024-02-14T00:39:15;8.28;73.49
84265;DHT22;74412;45.626;5.108;2024-02-14T00:41:46;8.30;73.63
84265;DHT22;74412;45.626;5.108;2024-02-14T00:44:12;8.28;73.47
84265;DHT22;74412;45.626;5.108;2024-02-14T00:46:42;8.30;73.38
84265;DHT22;74412;45.626;5.108;2024-02-14T00:49:08;8.30;73.53
84265;DHT22;74412;45.626;5.108;2024-02-14T00:51:35;8.30;73.63
84265;DHT22;74412;45.626;5.108;2024-02-14T00:54:02;8.28;73.63
84265;DHT22;74412;45.626;5.108;2024-02-14T00:56:29;8.30;73.78
84265;DHT22;74412;45.626;5.108;2024-02-14T00:58:57;8.29;74.02
84265;DHT22;74412;45.626;5.108;2024-02-14T01:01:24;8.30;73.98
84265;DHT22;74412;45.626;5.108;2024-02-14T01:03:51;8.28;73.81
84265;DHT22;74412;45.626;5.108;2024-02-14T01:06:17;8.28;73.75
84265;DHT22;74412;45.626;5.108;2024-02-14T01:08:45;8.26;73.79
84265;DHT22;74412;45.626;5.108;2024-02-14T01:11:12;8.26;74.00
84265;DHT22;74412;45.626;5.108;2024-02-14T01:13:39;8.28;74.06
84265;DHT22;74412;45.626;5.108;2024-02-14T01:16:08;8.28;74.11
84265;DHT22;74412;45.626;5.108;2024-02-14T01:18:34;8.28;74.12
84265;DHT22;74412;45.626;5.108;2024-02-14T01:21:02;8.29;74.06
84265;DHT22;74412;45.626;5.108;2024-02-14T01:23:28;8.30;73.91
84265;DHT22;74412;45.626;5.108;2024-02-14T01:25:54;8.29;74.06
84265;DHT22;74412;45.626;5.108;2024-02-14T01:28:21;8.29;74.04
84265;DHT22;74412;45.626;5.108;2024-02-14T01:30:48;8.28;74.10
84265;DHT22;74412;45.626;5.108;2024-02-14T01:33:17;8.30;74.18
84265;DHT22;74412;45.626;5.108;2024-02-14T01:35:44;8.29;74.08
84265;DHT22;74412;45.626;5.108;2024-02-14T01:38:10;8.32;74.19
84265;DHT22;74412;45.626;5.108;2024-02-14T01:40:38;8.33;74.10
84265;DHT22;74412;45.626;5.108;2024-02-14T01:43:05;8.32;74.09
84265;DHT22;74412;45.626;5.108;2024-02-14T01:45:31;8.32;74.22
84265;DHT22;74412;45.626;5.108;2024-02-14T01:47:58;8.30;74.24
84265;DHT22;74412;45.626;5.108;2024-02-14T01:50:26;8.29;74.24
84265;DHT22;74412;45.626;5.108;2024-02-14T01:52:56;8.29;74.14
84265;DHT22;74412;45.626;5.108;2024-02-14T01:55:24;8.29;74.05
84265;DHT22;74412;45.626;5.108;2024-02-14T01:57:52;8.32;74.00
84265;DHT22;74412;45.626;5.108;2024-02-14T02:00:19;8.30;74.19
84265;DHT22;74412;45.626;5.108;2024-02-14T02:02:46;8.29;74.23
84265;DHT22;74412;45.626;5.108;2024-02-14T02:05:13;8.28;74.44
84265;DHT22;74412;45.626;5.108;2024-02-14T02:07:42;8.28;74.48
84265;DHT22;74412;45.626;5.108;2024-02-14T02:10:10;8.26;74.33
84265;DHT22;74412;45.626;5.108;2024-02-14T02:12:37;8.26;74.26
84265;DHT22;74412;45.626;5.108;2024-02-14T02:15:05;8.25;74.06
84265;DHT22;74412;45.626;5.108;2024-02-14T02:17:32;8.25;73.93
84265;DHT22;74412;45.626;5.108;2024-02-14T02:20:00;8.25;73.96
84265;DHT22;74412;45.626;5.108;2024-02-14T02:22:27;8.22;73.92
84265;DHT22;74412;45.626;5.108;2024-02-14T02:24:58;8.23;74.05
84265;DHT22;74412;45.626;5.108;2024-02-14T02:27:25;8.17;73.84
84265;DHT22;74412;45.626;5.108;2024-02-14T02:29:52;8.16;74.02
84265;DHT22;74412;45.626;5.108;2024-02-14T02:32:19;8.12;74.10
84265;DHT22;74412;45.626;5.108;2024-02-14T02:34:46;8.10;74.20
84265;DHT22;74412;45.626;5.108;2024-02-14T02:37:13;8.07;74.00
84265;DHT22;74412;45.626;5.108;2024-02-14T02:39:41;8.03;74.19
84265;DHT22;74412;45.626;5.108;2024-02-14T02:42:09;8.01;74.22
84265;DHT22;74412;45.626;5.108;2024-02-14T02:44:39;7.95;74.31
84265;DHT22;74412;45.626;5.108;2024-02-14T02:47:05;7.91;74.52
84265;DHT22;74412;45.626;5.108;2024-02-14T02:49:32;7.89;74.50
84265;DHT22;74412;45.626;5.108;2024-02-14T02:52:02;7.86;74.63
84265;DHT22;74412;45.626;5.108;2024-02-14T02:54:29;7.81;74.69
84265;DHT22;74412;45.626;5.108;2024-02-14T02:56:56;7.81;74.58
84265;DHT22;74412;45.626;5.108;2024-02-14T02:59:27;7.81;74.39
84265;DHT22;74412;45.626;5.108;2024-02-14T03:01:54;7.81;74.06
84265;DHT22;74412;45.626;5.108;2024-02-14T03:04:23;7.83;74.01
84265;DHT22;74412;45.626;5.108;2024-02-14T03:06:51;7.85;73.74
84265;DHT22;74412;45.626;5.108;2024-02-14T03:09:20;7.88;73.65
84265;DHT22;74412;45.626;5.108;2024-02-14T03:11:48;7.91;73.13
84265;DHT22;74412;45.626;5.108;2024-02-14T03:14:14;7.89;73.06
84265;DHT22;74412;45.626;5.108;2024-02-14T03:16:42;7.91;72.93
84265;DHT22;74412;45.626;5.108;2024-02-14T03:19:09;7.95;72.86
84265;DHT22;74412;45.626;5.108;2024-02-14T03:21:36;7.93;72.63
84265;DHT22;74412;45.626;5.108;2024-02-14T03:24:03;7.98;72.43
84265;DHT22;74412;45.626;5.108;2024-02-14T03:26:30;7.96;72.72
84265;DHT22;74412;45.626;5.108;2024-02-14T03:28:59;7.96;72.97
84265;DHT22;74412;45.626;5.108;2024-02-14T03:31:26;7.95;72.93
84265;DHT22;74412;45.626;5.108;2024-02-14T03:33:54;7.98;72.79
84265;DHT22;74412;45.626;5.108;2024-02-14T03:36:20;7.98;73.18
84265;DHT22;74412;45.626;5.108;2024-02-14T03:38:49;7.98;73.03
84265;DHT22;74412;45.626;5.108;2024-02-14T03:41:16;7.95;72.95
84265;DHT22;74412;45.626;5.108;2024-02-14T03:43:42;7.93;72.89
84265;DHT22;74412;45.626;5.108;2024-02-14T03:46:09;7.93;72.35
84265;DHT22;74412;45.626;5.108;2024-02-14T03:48:37;7.93;72.93
84265;DHT22;74412;45.626;5.108;2024-02-14T03:51:07;7.93;73.03
84265;DHT22;74412;45.626;5.108;2024-02-14T03:53:34;7.92;73.11
84265;DHT22;74412;45.626;5.108;2024-02-14T03:56:08;7.86;73.21
84265;DHT22;74412;45.626;5.108;2024-02-14T03:58:38;7.85;73.38
84265;DHT22;74412;45.626;5.108;2024-02-14T04:01:09;7.82;73.38
84265;DHT22;74412;45.626;5.108;2024-02-14T04:03:37;7.79;73.38
84265;DHT22;74412;45.626;5.108;2024-02-14T04:06:04;7.79;73.58
84265;DHT22;74412;45.626;5.108;2024-02-14T04:08:32;7.75;73.56
84265;DHT22;74412;45.626;5.108;2024-02-14T04:10:59;7.72;73.60
84265;DHT22;74412;45.626;5.108;2024-02-14T04:13:25;7.75;73.71
84265;DHT22;74412;45.626;5.108;2024-02-14T04:15:52;7.72;73.80
84265;DHT22;74412;45.626;5.108;2024-02-14T04:18:26;7.74;73.63
84265;DHT22;74412;45.626;5.108;2024-02-14T04:20:54;7.71;73.71
84265;DHT22;74412;45.626;5.108;2024-02-14T04:23:21;7.69;73.76
84265;DHT22;74412;45.626;5.108;2024-02-14T04:25:49;7.67;73.99
84265;DHT22;74412;45.626;5.108;2024-02-14T04:28:16;7.69;74.09
84265;DHT22;74412;45.626;5.108;2024-02-14T04:30:42;7.69;74.30
84265;DHT22;74412;45.626;5.108;2024-02-14T04:33:09;7.68;74.34
84265;DHT22;74412;45.626;5.108;2024-02-14T04:35:37;7.72;74.31
84265;DHT22;74412;45.626;5.108;2024-02-14T04:38:04;7.71;74.37
84265;DHT22;74412;45.626;5.108;2024-02-14T04:40:31;7.71;73.86
84265;DHT22;74412;45.626;5.108;2024-02-14T04:43:00;7.75;73.59
84265;DHT22;74412;45.626;5.108;2024-02-14T04:45:28;7.75;73.61
84265;DHT22;74412;45.626;5.108;2024-02-14T04:47:54;7.75;73.94
84265;DHT22;74412;45.626;5.108;2024-02-14T04:50:21;7.78;73.90
84265;DHT22;74412;45.626;5.108;2024-02-14T04:52:49;7.79;73.88
84265;DHT22;74412;45.626;5.108;2024-02-14T04:55:15;7.79;73.91
84265;DHT22;74412;45.626;5.108;2024-02-14T04:57:44;7.79;73.83
84265;DHT22;74412;45.626;5.108;2024-02-14T05:00:13;7.82;74.04
84265;DHT22;74412;45.626;5.108;2024-02-14T05:02:40;7.82;74.25
84265;DHT22;74412;45.626;5.108;2024-02-14T05:05:09;7.82;74.34
84265;DHT22;74412;45.626;5.108;2024-02-14T05:07:36;7.85;74.47
84265;DHT22;74412;45.626;5.108;2024-02-14T05:10:03;7.86;74.52
84265;DHT22;74412;45.626;5.108;2024-02-14T05:12:32;7.83;74.77
84265;DHT22;74412;45.626;5.108;2024-02-14T05:14:59;7.88;74.76
84265;DHT22;74412;45.626;5.108;2024-02-14T05:17:27;7.88;74.66
84265;DHT22;74412;45.626;5.108;2024-02-14T05:19:54;7.88;74.79
84265;DHT22;74412;45.626;5.108;2024-02-14T05:22:26;7.88;74.94
84265;DHT22;74412;45.626;5.108;2024-02-14T05:24:54;7.89;75.08
84265;DHT22;74412;45.626;5.108;2024-02-14T05:27:21;7.91;75.12
84265;DHT22;74412;45.626;5.108;2024-02-14T05:29:47;7.88;75.02
84265;DHT22;74412;45.626;5.108;2024-02-14T05:32:14;7.92;75.10
84265;DHT22;74412;45.626;5.108;2024-02-14T05:34:43;7.89;75.14
84265;DHT22;74412;45.626;5.108;2024-02-14T05:37:11;7.93;75.23
84265;DHT22;74412;45.626;5.108;2024-02-14T05:39:38;7.93;75.23
84265;DHT22;74412;45.626;5.108;2024-02-14T05:42:05;7.89;75.14
84265;DHT22;74412;45.626;5.108;2024-02-14T05:44:32;7.91;75.13
84265;DHT22;74412;45.626;5.108;2024-02-14T05:47:00;7.91;75.26
84265;DHT22;74412;45.626;5.108;2024-02-14T05:49:26;7.91;75.21
84265;DHT22;74412;45.626;5.108;2024-02-14T05:51:54;7.91;75.23
84265;DHT22;74412;45.626;5.108;2024-02-14T05:54:25;7.91;75.25
84265;DHT22;74412;45.626;5.108;2024-02-14T05:56:53;7.92;75.21
84265;DHT22;74412;45.626;5.108;2024-02-14T05:59:20;7.95;75.08
84265;DHT22;74412;45.626;5.108;2024-02-14T06:01:50;7.92;74.85
84265;DHT22;74412;45.626;5.108;2024-02-14T06:04:34;7.92;75.09
84265;DHT22;74412;45.626;5.108;2024-02-14T06:07:16;7.92;75.01
84265;DHT22;74412;45.626;5.108;2024-02-14T06:09:43;7.92;74.90
84265;DHT22;74412;45.626;5.108;2024-02-14T06:12:10;7.93;74.74
84265;DHT22;74412;45.626;5.108;2024-02-14T06:14:37;7.91;74.86
84265;DHT22;74412;45.626;5.108;2024-02-14T06:17:04;7.88;74.87
84265;DHT22;74412;45.626;5.108;2024-02-14T06:19:31;7.86;75.10
84265;DHT22;74412;45.626;5.108;2024-02-14T06:21:58;7.85;75.12
84265;DHT22;74412;45.626;5.108;2024-02-14T06:24:27;7.81;74.96
84265;DHT22;74412;45.626;5.108;2024-02-14T06:26:53;7.78;75.13
84265;DHT22;74412;45.626;5.108;2024-02-14T06:29:20;7.77;75.22
84265;DHT22;74412;45.626;5.108;2024-02-14T06:31:47;7.72;75.38
84265;DHT22;74412;45.626;5.108;2024-02-14T06:34:13;7.69;75.55
84265;DHT22;74412;45.626;5.108;2024-02-14T06:36:40;7.67;75.67
84265;DHT22;74412;45.626;5.108;2024-02-14T06:39:07;7.67;75.81
84265;DHT22;74412;45.626;5.108;2024-02-14T06:41:35;7.64;75.76
84265;DHT22;74412;45.626;5.108;2024-02-14T06:44:02;7.61;75.89
84265;DHT22;74412;45.626;5.108;2024-02-14T06:46:29;7.59;75.80
84265;DHT22;74412;45.626;5.108;2024-02-14T06:48:56;7.58;75.70
84265;DHT22;74412;45.626;5.108;2024-02-14T06:51:23;7.58;75.65
84265;DHT22;74412;45.626;5.108;2024-02-14T06:53:49;7.54;75.68
84265;DHT22;74412;45.626;5.108;2024-02-14T06:56:16;7.51;75.64
84265;DHT22;74412;45.626;5.108;2024-02-14T06:58:45;7.51;75.64
84265;DHT22;74412;45.626;5.108;2024-02-14T07:01:11;7.51;75.68
84265;DHT22;74412;45.626;5.108;2024-02-14T07:03:40;7.48;75.70
84265;DHT22;74412;45.626;5.108;2024-02-14T07:06:07;7.50;75.58
84265;DHT22;74412;45.626;5.108;2024-02-14T07:08:35;7.46;75.48
84265;DHT22;74412;45.626;5.108;2024-02-14T07:11:04;7.44;75.15
84265;DHT22;74412;45.626;5.108;2024-02-14T07:13:31;7.40;75.02
84265;DHT22;74412;45.626;5.108;2024-02-14T07:15:59;7.41;74.88
84265;DHT22;74412;45.626;5.108;2024-02-14T07:18:26;7.37;73.98
84265;DHT22;74412;45.626;5.108;2024-02-14T07:20:54;7.38;73.80
84265;DHT22;74412;45.626;5.108;2024-02-14T07:23:21;7.35;73.72
84265;DHT22;74412;45.626;5.108;2024-02-14T07:25:48;7.32;73.62
84265;DHT22;74412;45.626;5.108;2024-02-14T07:28:16;7.35;73.71
84265;DHT22;74412;45.626;5.108;2024-02-14T07:30:43;7.37;73.90
84265;DHT22;74412;45.626;5.108;2024-02-14T07:33:11;7.41;74.07
84265;DHT22;74412;45.626;5.108;2024-02-14T07:35:38;7.46;73.82
84265;DHT22;74412;45.626;5.108;2024-02-14T07:38:12;7.50;73.82
84265;DHT22;74412;45.626;5.108;2024-02-14T07:40:39;7.57;73.35
84265;DHT22;74412;45.626;5.108;2024-02-14T07:43:07;7.61;73.34
84265;DHT22;74412;45.626;5.108;2024-02-14T07:45:33;7.67;72.67
84265;DHT22;74412;45.626;5.108;2024-02-14T07:48:00;7.68;72.76
84265;DHT22;74412;45.626;5.108;2024-02-14T07:50:29;7.77;72.48
84265;DHT22;74412;45.626;5.108;2024-02-14T07:52:58;7.82;73.08
84265;DHT22;74412;45.626;5.108;2024-02-14T07:55:25;7.88;73.33
84265;DHT22;74412;45.626;5.108;2024-02-14T07:57:52;7.93;72.70
84265;DHT22;74412;45.626;5.108;2024-02-14T08:00:19;7.99;73.04
84265;DHT22;74412;45.626;5.108;2024-02-14T08:02:48;8.09;73.20
84265;DHT22;74412;45.626;5.108;2024-02-14T08:05:16;8.17;73.08
84265;DHT22;74412;45.626;5.108;2024-02-14T08:07:44;8.23;73.33
84265;DHT22;74412;45.626;5.108;2024-02-14T08:10:11;8.33;72.98
84265;DHT22;74412;45.626;5.108;2024-02-14T08:12:38;8.42;72.34
84265;DHT22;74412;45.626;5.108;2024-02-14T08:15:05;8.50;72.50
84265;DHT22;74412;45.626;5.108;2024-02-14T08:17:32;8.57;72.47
84265;DHT22;74412;45.626;5.108;2024-02-14T08:20:00;8.64;72.36
84265;DHT22;74412;45.626;5.108;2024-02-14T08:22:29;8.75;72.09
84265;DHT22;74412;45.626;5.108;2024-02-14T08:24:57;8.81;71.89
84265;DHT22;74412;45.626;5.108;2024-02-14T08:27:24;8.94;71.93
84265;DHT22;74412;45.626;5.108;2024-02-14T08:29:51;9.01;70.65
84265;DHT22;74412;45.626;5.108;2024-02-14T08:32:18;9.03;71.01
84265;DHT22;74412;45.626;5.108;2024-02-14T08:34:45;9.08;70.94
84265;DHT22;74412;45.626;5.108;2024-02-14T08:37:13;9.14;70.76
84265;DHT22;74412;45.626;5.108;2024-02-14T08:39:39;9.24;71.15
84265;DHT22;74412;45.626;5.108;2024-02-14T08:42:07;9.31;71.59
84265;DHT22;74412;45.626;5.108;2024-02-14T08:44:35;9.40;72.39
84265;DHT22;74412;45.626;5.108;2024-02-14T08:47:03;9.55;72.10
84265;DHT22;74412;45.626;5.108;2024-02-14T08:49:29;9.62;71.64
84265;DHT22;74412;45.626;5.108;2024-02-14T08:51:56;9.75;70.76
84265;DHT22;74412;45.626;5.108;2024-02-14T08:54:23;9.82;70.83
84265;DHT22;74412;45.626;5.108;2024-02-14T08:56:50;9.93;70.19
84265;DHT22;74412;45.626;5.108;2024-02-14T08:59:20;10.04;70.08
84265;DHT22;74412;45.626;5.108;2024-02-14T09:01:47;10.12;70.28
84265;DHT22;74412;45.626;5.108;2024-02-14T09:04:13;10.21;69.29
84265;DHT22;74412;45.626;5.108;2024-02-14T09:06:40;10.33;68.82
84265;DHT22;74412;45.626;5.108;2024-02-14T09:09:07;10.40;69.23
84265;DHT22;74412;45.626;5.108;2024-02-14T09:11:35;10.44;69.04
84265;DHT22;74412;45.626;5.108;2024-02-14T09:14:02;10.54;68.67
84265;DHT22;74412;45.626;5.108;2024-02-14T09:16:33;10.64;68.61
84265;DHT22;74412;45.626;5.108;2024-02-14T09:18:59;10.68;67.62
84265;DHT22;74412;45.626;5.108;2024-02-14T09:21:27;10.75;67.59
84265;DHT22;74412;45.626;5.108;2024-02-14T09:23:54;10.79;67.33
84265;DHT22;74412;45.626;5.108;2024-02-14T09:26:20;10.85;67.28
84265;DHT22;74412;45.626;5.108;2024-02-14T09:28:47;10.88;67.14
84265;DHT22;74412;45.626;5.108;2024-02-14T09:31:17;10.95;65.91
84265;DHT22;74412;45.626;5.108;2024-02-14T09:33:46;11.01;65.77
84265;DHT22;74412;45.626;5.108;2024-02-14T09:36:14;11.11;65.77
84265;DHT22;74412;45.626;5.108;2024-02-14T09:38:41;11.12;65.80
84265;DHT22;74412;45.626;5.108;2024-02-14T09:41:21;11.19;64.84
84265;DHT22;74412;45.626;5.108;2024-02-14T09:43:48;11.22;64.47
84265;DHT22;74412;45.626;5.108;2024-02-14T09:46:15;11.33;64.15
84265;DHT22;74412;45.626;5.108;2024-02-14T09:48:43;11.40;63.17
84265;DHT22;74412;45.626;5.108;2024-02-14T09:51:12;11.50;62.34
84265;DHT22;74412;45.626;5.108;2024-02-14T09:53:39;11.56;61.75
84265;DHT22;74412;45.626;5.108;2024-02-14T09:56:09;11.63;61.62
84265;DHT22;74412;45.626;5.108;2024-02-14T09:58:36;11.70;62.44
84265;DHT22;74412;45.626;5.108;2024-02-14T10:01:03;11.77;60.88
84265;DHT22;74412;45.626;5.108;2024-02-14T10:03:30;11.83;61.49
84265;DHT22;74412;45.626;5.108;2024-02-14T10:05:57;11.83;61.21
84265;DHT22;74412;45.626;5.108;2024-02-14T10:08:25;11.89;60.49
84265;DHT22;74412;45.626;5.108;2024-02-14T10:10:52;11.93;60.55
84265;DHT22;74412;45.626;5.108;2024-02-14T10:13:19;11.95;60.40
84265;DHT22;74412;45.626;5.108;2024-02-14T10:15:45;12.03;60.88
84265;DHT22;74412;45.626;5.108;2024-02-14T10:18:14;12.08;60.63
84265;DHT22;74412;45.626;5.108;2024-02-14T10:20:52;12.21;61.14
84265;DHT22;74412;45.626;5.108;2024-02-14T10:23:19;12.28;61.06
84265;DHT22;74412;45.626;5.108;2024-02-14T10:25:47;12.37;60.75
84265;DHT22;74412;45.626;5.108;2024-02-14T10:28:15;12.46;60.98
84265;DHT22;74412;45.626;5.108;2024-02-14T10:30:45;12.56;59.34
84265;DHT22;74412;45.626;5.108;2024-02-14T10:33:12;12.62;60.58
84265;DHT22;74412;45.626;5.108;2024-02-14T10:35:41;12.74;59.21
84265;DHT22;74412;45.626;5.108;2024-02-14T10:38:08;12.84;58.84
84265;DHT22;74412;45.626;5.108;2024-02-14T10:40:36;12.91;58.05
84265;DHT22;74412;45.626;5.108;2024-02-14T10:43:05;12.96;57.37
84265;DHT22;74412;45.626;5.108;2024-02-14T10:45:32;13.00;56.52
84265;DHT22;74412;45.626;5.108;2024-02-14T10:48:01;13.00;57.31
84265;DHT22;74412;45.626;5.108;2024-02-14T10:50:32;13.13;57.39
84265;DHT22;74412;45.626;5.108;2024-02-14T10:53:00;13.20;56.74
84265;DHT22;74412;45.626;5.108;2024-02-14T10:55:30;13.33;57.42
84265;DHT22;74412;45.626;5.108;2024-02-14T10:57:57;13.43;55.96
84265;DHT22;74412;45.626;5.108;2024-02-14T11:00:26;13.51;56.43
84265;DHT22;74412;45.626;5.108;2024-02-14T11:02:55;13.60;54.16
84265;DHT22;74412;45.626;5.108;2024-02-14T11:05:22;13.69;54.38
84265;DHT22;74412;45.626;5.108;2024-02-14T11:07:50;13.71;54.06
84265;DHT22;74412;45.626;5.108;2024-02-14T11:10:19;13.70;54.19
84265;DHT22;74412;45.626;5.108;2024-02-14T11:12:47;13.71;53.66
84265;DHT22;74412;45.626;5.108;2024-02-14T11:15:17;13.75;54.58
84265;DHT22;74412;45.626;5.108;2024-02-14T11:17:45;13.78;53.57
84265;DHT22;74412;45.626;5.108;2024-02-14T11:20:15;13.82;54.24
84265;DHT22;74412;45.626;5.108;2024-02-14T11:22:50;13.84;54.49
84265;DHT22;74412;45.626;5.108;2024-02-14T11:25:22;13.91;53.28
84265;DHT22;74412;45.626;5.108;2024-02-14T11:27:49;13.94;53.08
84265;DHT22;74412;45.626;5.108;2024-02-14T11:30:28;14.02;53.73
84265;DHT22;74412;45.626;5.108;2024-02-14T11:33:15;14.14;55.54
84265;DHT22;74412;45.626;5.108;2024-02-14T11:35:43;14.28;55.55
84265;DHT22;74412;45.626;5.108;2024-02-14T11:38:10;14.38;53.66
84265;DHT22;74412;45.626;5.108;2024-02-14T11:40:37;14.42;53.01
84265;DHT22;74412;45.626;5.108;2024-02-14T11:43:04;14.46;52.40
84265;DHT22;74412;45.626;5.108;2024-02-14T11:45:31;14.51;52.02
84265;DHT22;74412;45.626;5.108;2024-02-14T11:47:59;14.59;52.46
84265;DHT22;74412;45.626;5.108;2024-02-14T11:50:26;14.73;53.87
84265;DHT22;74412;45.626;5.108;2024-02-14T11:52:54;14.87;53.05
84265;DHT22;74412;45.626;5.108;2024-02-14T11:55:27;14.92;53.48
84265;DHT22;74412;45.626;5.108;2024-02-14T11:57:54;14.95;52.70
84265;DHT22;74412;45.626;5.108;2024-02-14T12:00:20;14.92;52.17
84265;DHT22;74412;45.626;5.108;2024-02-14T12:02:47;14.96;53.53
84265;DHT22;74412;45.626;5.108;2024-02-14T12:05:16;14.96;55.56
84265;DHT22;74412;45.626;5.108;2024-02-14T12:07:43;15.00;55.47
84265;DHT22;74412;45.626;5.108;2024-02-14T12:10:10;15.06;54.67
84265;DHT22;74412;45.626;5.108;2024-02-14T12:12:38;15.10;54.55
84265;DHT22;74412;45.626;5.108;2024-02-14T12:15:05;15.17;52.54
84265;DHT22;74412;45.626;5.108;2024-02-14T12:17:31;15.23;52.32
84265;DHT22;74412;45.626;5.108;2024-02-14T12:20:07;15.24;52.30
84265;DHT22;74412;45.626;5.108;2024-02-14T12:22:36;15.33;52.53
84265;DHT22;74412;45.626;5.108;2024-02-14T12:25:03;15.46;49.35
84265;DHT22;74412;45.626;5.108;2024-02-14T12:27:32;15.43;48.64
84265;DHT22;74412;45.626;5.108;2024-02-14T12:29:59;15.41;48.50
84265;DHT22;74412;45.626;5.108;2024-02-14T12:32:25;15.46;49.32
84265;DHT22;74412;45.626;5.108;2024-02-14T12:34:55;15.47;48.28
84265;DHT22;74412;45.626;5.108;2024-02-14T12:37:22;15.48;48.64
84265;DHT22;74412;45.626;5.108;2024-02-14T12:39:50;15.50;49.33
84265;DHT22;74412;45.626;5.108;2024-02-14T12:42:18;15.47;48.62
84265;DHT22;74412;45.626;5.108;2024-02-14T12:44:50;15.44;49.91
84265;DHT22;74412;45.626;5.108;2024-02-14T12:47:17;15.48;50.87
84265;DHT22;74412;45.626;5.108;2024-02-14T12:49:46;15.50;50.97
84265;DHT22;74412;45.626;5.108;2024-02-14T12:52:14;15.54;51.30
84265;DHT22;74412;45.626;5.108;2024-02-14T12:54:40;15.51;51.23
84265;DHT22;74412;45.626;5.108;2024-02-14T12:57:08;15.53;51.76
84265;DHT22;74412;45.626;5.108;2024-02-14T12:59:35;15.48;50.92
84265;DHT22;74412;45.626;5.108;2024-02-14T13:02:02;15.48;51.26
84265;DHT22;74412;45.626;5.108;2024-02-14T13:04:31;15.51;51.14
84265;DHT22;74412;45.626;5.108;2024-02-14T13:06:58;15.55;52.24
84265;DHT22;74412;45.626;5.108;2024-02-14T13:09:25;15.61;51.99
84265;DHT22;74412;45.626;5.108;2024-02-14T13:11:51;15.67;51.91
84265;DHT22;74412;45.626;5.108;2024-02-14T13:14:20;15.68;51.28
84265;DHT22;74412;45.626;5.108;2024-02-14T13:16:46;15.74;51.84
84265;DHT22;74412;45.626;5.108;2024-02-14T13:19:13;15.78;52.55
84265;DHT22;74412;45.626;5.108;2024-02-14T13:21:40;15.84;52.10
84265;DHT22;74412;45.626;5.108;2024-02-14T13:24:10;15.90;52.69
84265;DHT22;74412;45.626;5.108;2024-02-14T13:26:38;15.98;53.34
84265;DHT22;74412;45.626;5.108;2024-02-14T13:29:05;16.09;52.69
84265;DHT22;74412;45.626;5.108;2024-02-14T13:31:34;16.15;52.49
84265;DHT22;74412;45.626;5.108;2024-02-14T13:34:00;16.21;53.80
84265;DHT22;74412;45.626;5.108;2024-02-14T13:36:29;16.25;52.31
84265;DHT22;74412;45.626;5.108;2024-02-14T13:38:56;16.32;53.35
84265;DHT22;74412;45.626;5.108;2024-02-14T13:41:22;16.33;52.59
84265;DHT22;74412;45.626;5.108;2024-02-14T13:43:49;16.38;53.90
84265;DHT22;74412;45.626;5.108;2024-02-14T13:46:16;16.43;54.45
84265;DHT22;74412;45.626;5.108;2024-02-14T13:48:44;16.43;54.94
84265;DHT22;74412;45.626;5.108;2024-02-14T13:51:11;16.43;53.54
84265;DHT22;74412;45.626;5.108;2024-02-14T13:53:37;16.46;54.60
84265;DHT22;74412;45.626;5.108;2024-02-14T13:56:05;16.46;54.83
84265;DHT22;74412;45.626;5.108;2024-02-14T13:58:32;16.45;54.92
84265;DHT22;74412;45.626;5.108;2024-02-14T14:00:58;16.46;55.36
84265;DHT22;74412;45.626;5.108;2024-02-14T14:03:25;16.46;56.45
84265;DHT22;74412;45.626;5.108;2024-02-14T14:05:53;16.45;54.99
84265;DHT22;74412;45.626;5.108;2024-02-14T14:08:22;16.45;55.75
84265;DHT22;74412;45.626;5.108;2024-02-14T14:10:48;16.42;55.37
84265;DHT22;74412;45.626;5.108;2024-02-14T14:13:15;16.41;55.32
84265;DHT22;74412;45.626;5.108;2024-02-14T14:15:41;16.38;55.10
84265;DHT22;74412;45.626;5.108;2024-02-14T14:18:08;16.35;56.07
84265;DHT22;74412;45.626;5.108;2024-02-14T14:20:36;16.33;56.18
84265;DHT22;74412;45.626;5.108;2024-02-14T14:23:04;16.25;55.17
84265;DHT22;74412;45.626;5.108;2024-02-14T14:25:31;16.25;55.88
84265;DHT22;74412;45.626;5.108;2024-02-14T14:27:58;16.26;56.12
84265;DHT22;74412;45.626;5.108;2024-02-14T14:30:25;16.25;57.04
84265;DHT22;74412;45.626;5.108;2024-02-14T14:32:52;16.28;57.28
84265;DHT22;74412;45.626;5.108;2024-02-14T14:35:18;16.22;55.10
84265;DHT22;74412;45.626;5.108;2024-02-14T14:37:45;16.19;55.71
84265;DHT22;74412;45.626;5.108;2024-02-14T14:40:13;16.13;56.12
84265;DHT22;74412;45.626;5.108;2024-02-14T14:42:40;16.13;55.65
84265;DHT22;74412;45.626;5.108;2024-02-14T14:45:07;16.09;56.28
84265;DHT22;74412;45.626;5.108;2024-02-14T14:47:33;16.06;55.69
84265;DHT22;74412;45.626;5.108;2024-02-14T14:50:01;16.02;55.60
84265;DHT22;74412;45.626;5.108;2024-02-14T14:52:29;15.97;56.37
84265;DHT22;74412;45.626;5.108;2024-02-14T14:54:55;15.94;55.58
84265;DHT22;74412;45.626;5.108;2024-02-14T14:57:23;15.91;55.60
84265;DHT22;74412;45.626;5.108;2024-02-14T14:59:50;15.84;57.04
84265;DHT22;74412;45.626;5.108;2024-02-14T15:02:17;15.84;56.88
84265;DHT22;74412;45.626;5.108;2024-02-14T15:04:44;15.81;56.58
84265;DHT22;74412;45.626;5.108;2024-02-14T15:07:12;15.81;55.90
84265;DHT22;74412;45.626;5.108;2024-02-14T15:09:39;15.74;56.35
84265;DHT22;74412;45.626;5.108;2024-02-14T15:12:06;15.75;58.32
84265;DHT22;74412;45.626;5.108;2024-02-14T15:14:34;15.72;57.30
84265;DHT22;74412;45.626;5.108;2024-02-14T15:17:01;15.68;56.92
84265;DHT22;74412;45.626;5.108;2024-02-14T15:19:31;15.68;57.88
84265;DHT22;74412;45.626;5.108;2024-02-14T15:21:58;15.68;57.52
84265;DHT22;74412;45.626;5.108;2024-02-14T15:24:28;15.65;57.25
84265;DHT22;74412;45.626;5.108;2024-02-14T15:26:55;15.64;56.92
84265;DHT22;74412;45.626;5.108;2024-02-14T15:29:26;15.62;57.32
84265;DHT22;74412;45.626;5.108;2024-02-14T15:32:11;15.62;57.92
84265;DHT22;74412;45.626;5.108;2024-02-14T15:34:55;15.61;57.73
84265;DHT22;74412;45.626;5.108;2024-02-14T15:37:22;15.61;57.60
84265;DHT22;74412;45.626;5.108;2024-02-14T15:39:49;15.55;57.38
84265;DHT22;74412;45.626;5.108;2024-02-14T15:42:17;15.53;58.12